Fargo, ND (58102)

5:33 PM CST on March 03, 2015 (GMT -0600)
Hector International | Change Station
CLOSE
Current Station
Airport
Location: Fargo,
Elevation: 899 ft
Nearby Weather Stations
Active Advisory: Wind Chill Advisory

Elev 899 ft 46.91 °N, 96.81 °W | Updated 40 minutes ago

Light Snow
Light Snow
11 °F
Feels Like -10 °F
N
28
Wind Variable Wind from NW
Gusts 33 mph

Today
High -- | Low -- °F
--% Chance of Precip.
Yesterday
High -- | Low -- °F
Precip. -- in
7:03 AM 6:15 PM
Waxing Gibbous, 97% visible
Pressure 30.00 in
Visibility 9.0 miles
Clouds Mostly Cloudy 2800 ft
Windchill -10 °F
Dew Point -3 °F
Humidity 54%
Rainfall 0.00 in
Snow Depth Not available.
UV 0 out of 12
Pollen .10 out of 12
Air Quality Not available.
Flu Activity Not available.
METAR KFAR 032253Z 31024G29KT 9SM -SN BKN028 M12/M19 A2995 RMK AO2 PK WND 31029/2253 SLP159 P0000 T11171194

More Conditions Fewer Conditions

Pressure 30.00 in
Visibility 9.0 miles
Clouds Mostly Cloudy 2800 ft
Windchill -10 °F
Dew Point -3 °F
Humidity 54%
Rainfall 0.00 in
Snow Depth Not available.
UV 0 out of 12
Pollen .10 out of 12
Air Quality Not available.
Flu Activity Not available.
METAR KFAR 032253Z 31024G29KT 9SM -SN BKN028 M12/M19 A2995 RMK AO2 PK WND 31029/2253 SLP159 P0000 T11171194

More Conditions Fewer Conditions

10-Day Weather Forecast

Almanac

Astronomy

Mar. 03, 2015 Rise Set
Actual Time
Civil Twilight
Nautical Twilight
Astronomical Twilight
Moon
Length of Visible Light
Length of Day
Tomorrow will be .
, % of the Moon is Illuminated

Today's Extremes

State Highs State Lows

Community

WunderPhotos

Upload Photos

1,802,305 photos uploaded!

WunderBlogs® & News

Nearby

Air Quality

  Air Quality AQ Index Pollutant
Not available.

Snow Depth

Station Depth Elevation

Earthquake Activity

City Distance Mag. Time & Date
Minimum magnitude displayed is 2.5.

Coastal Water Temperatures

Place Temperature

Nearby Weather Stations

Wind Chill Advisory
Statement as of 3:28 PM CST on March 03, 2015

... Wind Chill Advisory in effect from midnight tonight to noon
CST Wednesday...

The National Weather Service in Grand Forks has issued a Wind
Chill Advisory... which is in effect from midnight tonight to noon
CST Wednesday.

* Timing... late tonight through Wednesday morning.

* Wind chill values... 25 to 35 below.

Precautionary/preparedness actions...

A Wind Chill Advisory means that very cold air and winds will
combine to generate low wind chills. This will result in frost
bite and lead to hypothermia if precautions are not taken. If
you must venture outdoors... make sure you wear appropriate
clothing... including hat and gloves.